createdAt,value
2022-07-27T00:01:50.947Z,38.11
2022-07-27T00:04:23.950Z,38.21
2022-07-27T00:06:56.812Z,38.26
2022-07-27T00:09:29.028Z,38.47
2022-07-27T00:12:01.221Z,38.35
2022-07-27T00:14:33.561Z,38.39
2022-07-27T00:17:06.020Z,38.68
2022-07-27T00:19:38.179Z,38.72
2022-07-27T00:22:10.352Z,38.75
2022-07-27T00:24:42.525Z,38.93
2022-07-27T00:27:14.744Z,38.97
2022-07-27T00:29:46.855Z,39.16
2022-07-27T00:32:19.249Z,39.18
2022-07-27T00:34:51.425Z,39.32
2022-07-27T00:37:23.599Z,39.15
2022-07-27T00:39:57.116Z,39.33
2022-07-27T00:42:30.098Z,39.52
2022-07-27T00:45:02.327Z,39.49
2022-07-27T00:47:34.723Z,39.56
2022-07-27T00:50:08.609Z,39.46
2022-07-27T00:52:42.005Z,39.56
2022-07-27T00:55:14.188Z,39.71
2022-07-27T00:57:58.449Z,39.73
2022-07-27T01:00:31.919Z,40.03
2022-07-27T01:03:07.995Z,40.05
2022-07-27T01:05:42.377Z,40.42
2022-07-27T01:08:17.189Z,40.97
2022-07-27T01:10:50.306Z,41.07
2022-07-27T01:13:23.348Z,41.17
2022-07-27T01:15:56.687Z,41.41
2022-07-27T01:18:34.623Z,41.54
2022-07-27T01:21:10.376Z,41.69
2022-07-27T01:23:42.538Z,41.68
2022-07-27T01:26:14.819Z,41.74
2022-07-27T01:28:47.852Z,41.72
2022-07-27T01:31:20.181Z,41.78
2022-07-27T01:33:52.563Z,41.98
2022-07-27T01:36:24.739Z,42.13
2022-07-27T01:38:57.044Z,41.98
2022-07-27T01:41:29.522Z,42.19
2022-07-27T01:44:01.705Z,42.41
2022-07-27T01:46:34.108Z,42.41
2022-07-27T01:49:06.923Z,42.55
2022-07-27T01:51:39.207Z,42.55
2022-07-27T01:54:11.501Z,42.78
2022-07-27T01:56:43.753Z,42.75
2022-07-27T01:59:17.048Z,42.62
2022-07-27T02:01:49.456Z,42.83
2022-07-27T02:04:23.467Z,42.85
2022-07-27T02:06:55.632Z,43.13
2022-07-27T02:09:27.813Z,42.99
2022-07-27T02:12:17.811Z,43.28
2022-07-27T02:14:49.981Z,43.24
2022-07-27T02:17:22.782Z,43.31
2022-07-27T02:19:55.498Z,43.39
2022-07-27T02:22:27.694Z,43.63
2022-07-27T02:25:00.538Z,43.73
2022-07-27T02:27:32.883Z,43.93
2022-07-27T02:30:05.382Z,43.70
2022-07-27T02:32:37.858Z,44.05
2022-07-27T02:35:19.825Z,44.11
2022-07-27T02:37:52.696Z,44.30
2022-07-27T02:40:24.892Z,44.13
2022-07-27T02:42:57.134Z,44.31
2022-07-27T02:45:29.525Z,44.35
2022-07-27T02:48:01.695Z,44.60
2022-07-27T02:50:33.816Z,44.98
2022-07-27T02:53:06.029Z,45.17
2022-07-27T02:55:38.191Z,45.41
2022-07-27T02:58:10.461Z,45.51
2022-07-27T03:00:42.603Z,45.80
2022-07-27T03:03:15.051Z,45.88
2022-07-27T03:05:48.780Z,45.89
2022-07-27T03:08:20.938Z,45.84
2022-07-27T03:10:53.163Z,46.24
2022-07-27T03:13:26.773Z,46.29
2022-07-27T03:15:59.183Z,46.28
2022-07-27T03:18:31.478Z,46.63
2022-07-27T03:21:03.941Z,46.62
2022-07-27T03:23:36.225Z,46.78
2022-07-27T03:26:08.851Z,46.60
2022-07-27T03:28:40.961Z,46.70
2022-07-27T03:31:13.359Z,47.01
2022-07-27T03:33:45.620Z,47.04
2022-07-27T03:36:17.881Z,47.15
2022-07-27T03:38:50.157Z,47.16
2022-07-27T03:41:22.285Z,47.28
2022-07-27T03:43:54.415Z,47.37
2022-07-27T03:46:26.672Z,47.41
2022-07-27T03:48:58.994Z,47.20
2022-07-27T03:51:31.175Z,47.69
2022-07-27T03:54:04.341Z,47.36
2022-07-27T03:56:36.519Z,47.71
2022-07-27T03:59:08.997Z,47.82
2022-07-27T04:01:41.583Z,47.73
2022-07-27T04:04:13.773Z,47.81
2022-07-27T04:06:46.036Z,47.88
2022-07-27T04:09:19.860Z,47.82
2022-07-27T04:11:53.772Z,48.04
2022-07-27T04:14:28.067Z,48.10
2022-07-27T04:17:00.493Z,48.05
2022-07-27T04:19:32.748Z,48.28
2022-07-27T04:22:05.023Z,48.20
2022-07-27T04:24:37.364Z,48.27
2022-07-27T04:27:09.937Z,48.15
2022-07-27T04:29:42.240Z,48.33
2022-07-27T04:32:14.396Z,47.90
2022-07-27T04:34:46.603Z,48.12
2022-07-27T04:37:18.991Z,47.94
2022-07-27T04:39:51.208Z,47.98
2022-07-27T04:42:23.405Z,47.70
2022-07-27T04:44:55.760Z,47.78
2022-07-27T04:47:28.079Z,47.73
2022-07-27T04:50:00.196Z,47.92
2022-07-27T04:52:32.532Z,47.77
2022-07-27T04:55:05.343Z,47.77
2022-07-27T04:57:37.692Z,47.69
2022-07-27T05:00:12.192Z,47.53
2022-07-27T05:02:44.482Z,47.29
2022-07-27T05:05:16.685Z,47.43
2022-07-27T05:07:48.874Z,47.22
2022-07-27T05:10:21.439Z,47.07
2022-07-27T05:12:53.623Z,47.05
2022-07-27T05:15:26.192Z,47.10
2022-07-27T05:17:58.314Z,46.99
2022-07-27T05:20:30.653Z,46.89
2022-07-27T05:23:03.016Z,46.81
2022-07-27T05:25:35.222Z,46.56
2022-07-27T05:28:07.798Z,46.59
2022-07-27T05:30:39.976Z,46.32
2022-07-27T05:33:12.125Z,46.28
2022-07-27T05:35:44.482Z,46.20
2022-07-27T05:38:16.924Z,46.23
2022-07-27T05:40:49.958Z,46.02
2022-07-27T05:43:22.200Z,45.74
2022-07-27T05:45:55.806Z,45.77
2022-07-27T05:48:28.078Z,45.60
2022-07-27T05:51:00.277Z,45.43
2022-07-27T05:53:32.591Z,45.38
2022-07-27T05:56:04.878Z,45.15
2022-07-27T05:58:37.188Z,44.82
2022-07-27T06:01:09.537Z,44.78
2022-07-27T06:03:41.822Z,44.51
2022-07-27T06:06:33.783Z,44.06
2022-07-27T06:09:07.793Z,43.87
2022-07-27T06:11:39.984Z,43.40
2022-07-27T06:14:12.675Z,43.47
2022-07-27T06:16:44.835Z,43.23
2022-07-27T06:19:17.056Z,42.98
2022-07-27T06:21:53.657Z,42.88
2022-07-27T06:24:26.330Z,42.23
2022-07-27T06:26:58.480Z,42.18
2022-07-27T06:29:30.727Z,41.96
2022-07-27T06:32:02.928Z,41.65
2022-07-27T06:34:40.708Z,41.21
2022-07-27T06:37:14.867Z,41.12
2022-07-27T06:39:47.256Z,40.94
2022-07-27T06:42:19.430Z,40.84
2022-07-27T06:44:51.656Z,40.67
2022-07-27T06:47:28.657Z,40.39
2022-07-27T06:50:01.055Z,40.23
2022-07-27T06:52:33.312Z,39.82
2022-07-27T06:55:05.837Z,39.62
2022-07-27T06:57:38.075Z,39.70
2022-07-27T07:00:12.682Z,39.18
2022-07-27T07:02:56.294Z,38.87
2022-07-27T07:05:29.196Z,38.81
2022-07-27T07:08:02.086Z,38.79
2022-07-27T07:10:34.325Z,38.19
2022-07-27T07:13:08.710Z,38.30
2022-07-27T07:15:42.935Z,37.87
2022-07-27T07:18:15.848Z,37.64
2022-07-27T07:20:48.089Z,37.31
2022-07-27T07:23:20.386Z,37.14
2022-07-27T07:25:52.552Z,36.93
2022-07-27T07:28:24.729Z,36.60
2022-07-27T07:30:57.030Z,36.41
2022-07-27T07:33:29.324Z,36.22
2022-07-27T07:36:13.133Z,36.03
2022-07-27T07:38:47.235Z,35.71
2022-07-27T07:41:19.526Z,35.44
2022-07-27T07:43:52.093Z,35.16
2022-07-27T07:46:24.349Z,34.80
2022-07-27T07:48:56.849Z,34.55
2022-07-27T07:51:29.197Z,34.03
2022-07-27T07:54:01.348Z,33.98
2022-07-27T07:56:33.795Z,34.04
2022-07-27T07:59:06.068Z,33.52
2022-07-27T08:01:38.526Z,33.15
2022-07-27T08:04:10.755Z,32.95
2022-07-27T08:06:42.895Z,32.59
2022-07-27T08:09:17.177Z,32.10
2022-07-27T08:11:49.340Z,31.81
2022-07-27T08:14:21.509Z,31.46
2022-07-27T08:16:53.801Z,31.08
2022-07-27T08:19:26.173Z,31.01
2022-07-27T08:21:58.477Z,30.73
2022-07-27T08:24:30.931Z,30.38
2022-07-27T08:27:03.096Z,29.86
2022-07-27T08:29:37.372Z,29.70
2022-07-27T08:32:10.521Z,29.32
2022-07-27T08:34:42.828Z,28.84
2022-07-27T08:37:15.836Z,28.46
2022-07-27T08:42:41.963Z,27.77
2022-07-27T08:45:17.723Z,27.53
2022-07-27T08:47:49.954Z,27.24
2022-07-27T08:50:27.588Z,27.21
2022-07-27T08:53:03.482Z,26.80
2022-07-27T08:55:37.587Z,26.62
2022-07-27T08:58:10.806Z,26.20
2022-07-27T09:00:44.355Z,25.81
2022-07-27T09:03:20.374Z,25.40
2022-07-27T09:05:55.084Z,25.18
2022-07-27T09:08:30.957Z,25.09
2022-07-27T09:11:13.512Z,24.88
2022-07-27T09:13:45.830Z,24.72
2022-07-27T09:16:20.031Z,24.69
2022-07-27T09:19:02.117Z,24.36
2022-07-27T09:21:35.147Z,24.39
2022-07-27T09:24:36.571Z,24.16
2022-07-27T09:27:06.829Z,23.78
2022-07-27T09:29:39.658Z,23.54
2022-07-27T09:32:18.254Z,23.51
2022-07-27T09:34:50.646Z,23.16
2022-07-27T09:37:28.887Z,22.83
2022-07-27T09:40:24.321Z,22.50
2022-07-27T09:43:52.142Z,22.61
2022-07-27T09:46:10.223Z,22.35
2022-07-27T09:48:42.666Z,22.47
2022-07-27T09:51:58.353Z,22.06
2022-07-27T09:54:10.275Z,22.23
2022-07-27T09:56:43.301Z,21.87
2022-07-27T09:59:20.563Z,21.90
2022-07-27T10:01:54.939Z,21.61
2022-07-27T10:04:27.743Z,21.45
2022-07-27T10:07:03.298Z,21.39
2022-07-27T10:09:38.886Z,20.92
2022-07-27T10:12:12.117Z,20.76
2022-07-27T10:14:44.378Z,20.63
2022-07-27T10:17:16.757Z,20.30
2022-07-27T10:19:50.955Z,20.17
2022-07-27T10:22:54.140Z,20.27
2022-07-27T10:25:32.297Z,20.14
2022-07-27T10:28:17.669Z,20.02
2022-07-27T10:30:54.467Z,19.98
2022-07-27T10:33:47.532Z,19.57
2022-07-27T10:36:41.994Z,19.63
2022-07-27T10:39:26.490Z,19.66
2022-07-27T10:42:24.290Z,19.73
2022-07-27T10:45:15.215Z,19.53
2022-07-27T10:47:49.260Z,19.38
2022-07-27T10:50:32.520Z,19.48
2022-07-27T10:53:11.196Z,19.28
2022-07-27T10:56:00.209Z,19.59
2022-07-27T10:58:52.862Z,19.54
2022-07-27T11:01:25.594Z,19.49
2022-07-27T11:04:09.275Z,19.43
2022-07-27T11:07:04.947Z,19.51
2022-07-27T11:12:32.638Z,19.57
2022-07-27T11:15:07.798Z,19.54
2022-07-27T11:18:00.541Z,19.61
2022-07-27T11:20:35.337Z,19.55
2022-07-27T11:26:13.522Z,19.63
2022-07-27T11:28:45.724Z,19.64
2022-07-27T11:31:32.732Z,19.78
2022-07-27T11:34:11.707Z,19.70
2022-07-27T11:36:46.671Z,19.80
2022-07-27T11:39:54.459Z,19.85
2022-07-27T11:42:20.931Z,19.76
2022-07-27T11:44:54.526Z,20.05
2022-07-27T11:47:28.704Z,19.84
2022-07-27T11:50:11.590Z,19.89
2022-07-27T11:52:44.119Z,20.01
2022-07-27T11:55:16.513Z,20.06
2022-07-27T11:57:48.709Z,20.30
2022-07-27T12:00:21.191Z,20.20
2022-07-27T12:02:53.773Z,20.20
2022-07-27T12:05:26.353Z,20.41
2022-07-27T12:07:58.759Z,20.53
2022-07-27T12:10:34.572Z,20.49
2022-07-27T12:13:09.757Z,20.65
2022-07-27T12:15:46.381Z,20.49
2022-07-27T12:18:18.999Z,20.62
2022-07-27T12:20:52.063Z,20.63
2022-07-27T12:23:31.965Z,20.58
2022-07-27T12:26:21.060Z,20.59
2022-07-27T12:29:10.984Z,20.64
2022-07-27T12:31:51.486Z,20.47
2022-07-27T12:34:23.786Z,20.81
2022-07-27T12:36:56.059Z,20.75
2022-07-27T12:39:32.522Z,20.70
2022-07-27T12:42:10.092Z,20.67
2022-07-27T12:44:44.053Z,21.03
2022-07-27T12:47:34.000Z,20.96
2022-07-27T12:50:09.374Z,20.96
2022-07-27T12:52:45.692Z,20.84
2022-07-27T12:55:18.708Z,20.89
2022-07-27T12:57:56.276Z,20.85
2022-07-27T13:00:33.901Z,20.89
2022-07-27T13:03:07.976Z,20.58
2022-07-27T13:05:40.443Z,20.93
2022-07-27T13:08:16.574Z,21.07
2022-07-27T13:10:52.319Z,20.81
2022-07-27T13:13:25.423Z,20.92
2022-07-27T13:15:57.636Z,20.89
2022-07-27T13:18:29.986Z,20.87
2022-07-27T13:21:02.326Z,20.75
2022-07-27T13:23:34.544Z,20.86
2022-07-27T13:26:06.708Z,20.92
2022-07-27T13:28:38.808Z,20.31
2022-07-27T13:31:11.074Z,20.73
2022-07-27T13:33:43.249Z,20.63
2022-07-27T13:36:15.637Z,20.55
2022-07-27T13:38:47.912Z,20.59
2022-07-27T13:41:20.127Z,20.75
2022-07-27T13:43:52.337Z,20.40
2022-07-27T13:46:24.570Z,20.17
2022-07-27T13:48:56.937Z,20.32
2022-07-27T13:51:29.175Z,20.16
2022-07-27T13:54:01.329Z,20.02
2022-07-27T13:56:35.012Z,20.18
2022-07-27T13:59:08.113Z,20.10
2022-07-27T14:01:41.170Z,19.86
2022-07-27T14:04:13.790Z,19.93
2022-07-27T14:06:48.044Z,20.25
2022-07-27T14:09:21.799Z,20.11
2022-07-27T14:11:53.976Z,19.74
2022-07-27T14:14:27.147Z,19.85
2022-07-27T14:16:59.688Z,19.93
2022-07-27T14:19:31.882Z,19.98
2022-07-27T14:22:04.583Z,19.87
2022-07-27T14:24:38.214Z,19.94
2022-07-27T14:27:10.666Z,19.86
2022-07-27T14:29:42.815Z,20.07
2022-07-27T14:32:15.008Z,19.92
2022-07-27T14:34:49.778Z,19.89
2022-07-27T14:37:21.913Z,19.89
2022-07-27T14:39:54.291Z,19.97
2022-07-27T14:42:26.512Z,19.68
2022-07-27T14:44:58.788Z,19.46
2022-07-27T14:47:31.064Z,19.55
2022-07-27T14:50:04.211Z,19.35
2022-07-27T14:52:36.437Z,19.26
2022-07-27T14:55:10.076Z,19.24
2022-07-27T14:57:42.609Z,19.51
2022-07-27T15:00:17.841Z,19.25
2022-07-27T15:02:50.596Z,19.43
2022-07-27T15:05:23.112Z,19.05
2022-07-27T15:07:55.428Z,18.87
2022-07-27T15:10:27.928Z,19.00
2022-07-27T15:13:00.269Z,19.09
2022-07-27T15:15:33.393Z,18.74
2022-07-27T15:18:07.947Z,18.80
2022-07-27T15:20:40.612Z,18.95
2022-07-27T15:23:12.928Z,18.84
2022-07-27T15:25:45.264Z,19.02
2022-07-27T15:28:17.529Z,19.04
2022-07-27T15:30:50.020Z,19.07
2022-07-27T15:33:22.350Z,18.99
2022-07-27T15:35:54.691Z,19.14
2022-07-27T15:38:27.050Z,18.86
2022-07-27T15:40:59.336Z,19.72
2022-07-27T15:43:31.874Z,19.95
2022-07-27T15:46:04.429Z,20.51
2022-07-27T15:48:36.736Z,20.58
2022-07-27T15:51:09.295Z,21.05
2022-07-27T15:53:41.457Z,21.13
2022-07-27T15:56:13.760Z,21.42
2022-07-27T15:58:45.977Z,21.70
2022-07-27T16:01:20.789Z,22.00
2022-07-27T16:03:53.610Z,22.38
2022-07-27T16:06:25.788Z,22.68
2022-07-27T16:08:57.964Z,22.84
2022-07-27T16:11:30.220Z,23.27
2022-07-27T16:14:02.476Z,23.36
2022-07-27T16:16:34.917Z,23.81
2022-07-27T16:19:12.933Z,24.03
2022-07-27T16:21:53.340Z,24.20
2022-07-27T16:24:28.813Z,24.40
2022-07-27T16:27:05.235Z,24.64
2022-07-27T16:29:37.803Z,24.67
2022-07-27T16:32:12.257Z,24.70
2022-07-27T16:34:44.460Z,24.59
2022-07-27T16:37:17.347Z,24.76
2022-07-27T16:39:49.522Z,24.80
2022-07-27T16:42:21.773Z,24.95
2022-07-27T16:44:53.906Z,25.20
2022-07-27T16:47:26.149Z,25.31
2022-07-27T16:49:58.317Z,25.68
2022-07-27T16:52:30.664Z,25.73
2022-07-27T16:55:02.891Z,25.93
2022-07-27T16:57:34.961Z,26.06
2022-07-27T17:00:10.492Z,26.14
2022-07-27T17:02:42.656Z,26.25
2022-07-27T17:05:15.501Z,26.48
2022-07-27T17:07:50.478Z,26.82
2022-07-27T17:10:27.202Z,26.86
2022-07-27T17:12:59.890Z,26.92
2022-07-27T17:15:32.773Z,27.26
2022-07-27T17:18:07.179Z,27.35
2022-07-27T17:20:40.420Z,27.59
2022-07-27T17:23:12.605Z,27.73
2022-07-27T17:25:44.789Z,27.53
2022-07-27T17:28:16.987Z,27.95
2022-07-27T17:30:49.213Z,27.98
2022-07-27T17:33:21.680Z,27.90
2022-07-27T17:35:53.821Z,28.40
2022-07-27T17:38:25.971Z,28.10
2022-07-27T17:40:58.135Z,28.61
2022-07-27T17:43:30.283Z,28.51
2022-07-27T17:46:02.446Z,28.49
2022-07-27T17:48:35.569Z,28.54
2022-07-27T17:51:10.798Z,28.64
2022-07-27T17:53:43.824Z,28.82
2022-07-27T17:56:16.052Z,28.87
2022-07-27T17:58:48.472Z,29.12
2022-07-27T18:01:47.567Z,29.21
2022-07-27T18:04:13.044Z,29.73
2022-07-27T18:06:45.216Z,30.07
2022-07-27T18:09:17.598Z,30.22
2022-07-27T18:11:49.955Z,30.37
2022-07-27T18:14:22.248Z,30.32
2022-07-27T18:16:54.407Z,30.66
2022-07-27T18:19:26.681Z,30.78
2022-07-27T18:22:01.845Z,30.84
2022-07-27T18:24:35.885Z,30.97
2022-07-27T18:27:08.243Z,31.01
2022-07-27T18:29:42.282Z,31.18
2022-07-27T18:32:14.473Z,31.47
2022-07-27T18:34:47.863Z,31.72
2022-07-27T18:37:20.193Z,31.75
2022-07-27T18:39:52.387Z,31.83
2022-07-27T18:42:24.660Z,31.99
2022-07-27T18:44:57.209Z,32.14
2022-07-27T18:47:30.928Z,32.30
2022-07-27T18:50:03.203Z,32.43
2022-07-27T18:52:35.519Z,32.65
2022-07-27T18:55:09.038Z,32.82
2022-07-27T18:57:41.259Z,32.95
2022-07-27T19:00:15.417Z,33.37
2022-07-27T19:02:47.604Z,33.74
2022-07-27T19:05:32.570Z,33.68
2022-07-27T19:08:14.354Z,33.92
2022-07-27T19:10:47.172Z,33.91
2022-07-27T19:13:21.903Z,33.94
2022-07-27T19:15:54.121Z,34.21
2022-07-27T19:18:26.610Z,34.34
2022-07-27T19:20:58.737Z,34.68
2022-07-27T19:23:30.913Z,34.81
2022-07-27T19:26:03.139Z,34.91
2022-07-27T19:28:35.384Z,34.94
2022-07-27T19:31:22.933Z,35.06
2022-07-27T19:33:56.249Z,35.44
2022-07-27T19:36:28.740Z,35.43
2022-07-27T19:39:04.275Z,35.59
2022-07-27T19:41:39.545Z,35.71
2022-07-27T19:44:12.043Z,35.97
2022-07-27T19:46:44.568Z,35.96
2022-07-27T19:49:18.870Z,36.02
2022-07-27T19:51:51.419Z,36.25
2022-07-27T19:54:25.493Z,36.22
2022-07-27T19:56:57.764Z,36.23
2022-07-27T19:59:30.443Z,36.53
2022-07-27T20:02:22.674Z,36.45
2022-07-27T20:04:55.067Z,36.54
2022-07-27T20:07:27.311Z,36.52
2022-07-27T20:09:59.494Z,36.72
2022-07-27T20:12:31.728Z,36.71
2022-07-27T20:15:04.497Z,36.89
2022-07-27T20:17:40.593Z,37.07
2022-07-27T20:20:14.696Z,37.04
2022-07-27T20:22:47.278Z,37.41
2022-07-27T20:25:19.876Z,37.52
2022-07-27T20:27:52.242Z,37.61
2022-07-27T20:30:24.709Z,37.87
2022-07-27T20:32:57.036Z,37.87
2022-07-27T20:35:35.239Z,38.03
2022-07-27T20:38:10.124Z,38.15
2022-07-27T20:40:42.380Z,38.33
2022-07-27T20:43:14.606Z,38.39
2022-07-27T20:45:46.920Z,38.57
2022-07-27T20:48:19.213Z,38.74
2022-07-27T20:50:51.563Z,38.97
2022-07-27T20:53:24.151Z,39.03
2022-07-27T20:55:56.433Z,39.08
2022-07-27T20:58:28.595Z,39.27
2022-07-27T21:01:00.947Z,39.38
2022-07-27T21:03:34.370Z,39.49
2022-07-27T21:06:06.791Z,39.73
2022-07-27T21:08:44.343Z,39.74
2022-07-27T21:11:20.287Z,40.21
2022-07-27T21:13:54.356Z,40.15
2022-07-27T21:16:26.554Z,40.25
2022-07-27T21:18:58.816Z,40.89
2022-07-27T21:21:31.408Z,40.87
2022-07-27T21:24:21.100Z,40.97
2022-07-27T21:26:54.463Z,41.11
2022-07-27T21:29:30.042Z,41.22
2022-07-27T21:32:04.263Z,41.09
2022-07-27T21:34:36.545Z,41.18
2022-07-27T21:37:08.874Z,41.41
2022-07-27T21:39:41.127Z,41.27
2022-07-27T21:42:13.381Z,41.40
2022-07-27T21:44:45.648Z,41.49
2022-07-27T21:47:18.077Z,41.59
2022-07-27T21:49:50.266Z,41.54
2022-07-27T21:52:22.464Z,41.70
2022-07-27T21:54:55.001Z,42.04
2022-07-27T21:57:27.782Z,42.03
2022-07-27T22:00:00.040Z,42.11
2022-07-27T22:02:33.082Z,42.79
2022-07-27T22:05:05.632Z,42.77
2022-07-27T22:07:37.812Z,43.08
2022-07-27T22:10:11.682Z,42.96
2022-07-27T22:12:44.209Z,43.45
2022-07-27T22:15:16.395Z,43.60
2022-07-27T22:17:50.741Z,43.56
2022-07-27T22:20:24.084Z,43.83
2022-07-27T22:22:56.240Z,44.09
2022-07-27T22:25:28.587Z,44.10
2022-07-27T22:28:00.935Z,44.64
2022-07-27T22:30:33.326Z,44.67
2022-07-27T22:33:05.690Z,45.01
2022-07-27T22:35:37.868Z,44.91
2022-07-27T22:38:10.545Z,45.15
2022-07-27T22:40:42.689Z,45.01
2022-07-27T22:43:15.714Z,45.30
2022-07-27T22:45:48.277Z,45.32
2022-07-27T22:48:20.616Z,45.61
2022-07-27T22:50:52.913Z,45.57
2022-07-27T22:53:25.225Z,45.65
2022-07-27T22:55:57.549Z,46.13
2022-07-27T22:58:29.706Z,46.29
2022-07-27T23:01:02.941Z,46.37
2022-07-27T23:03:35.210Z,46.42
2022-07-27T23:06:07.780Z,46.53
2022-07-27T23:08:39.954Z,46.50
2022-07-27T23:11:13.685Z,46.63
2022-07-27T23:13:45.915Z,46.84
2022-07-27T23:16:18.195Z,46.66
2022-07-27T23:18:50.423Z,46.87
2022-07-27T23:21:22.665Z,47.42
2022-07-27T23:23:54.905Z,46.87
2022-07-27T23:26:27.092Z,47.33
2022-07-27T23:28:59.431Z,47.36
2022-07-27T23:31:31.735Z,47.32
2022-07-27T23:34:03.948Z,47.33
2022-07-27T23:36:36.113Z,47.85
2022-07-27T23:39:08.426Z,47.77
2022-07-27T23:41:40.569Z,47.92
2022-07-27T23:44:13.747Z,47.99
2022-07-27T23:46:46.393Z,47.83
2022-07-27T23:49:18.688Z,47.88
2022-07-27T23:51:51.005Z,48.01
2022-07-27T23:54:23.243Z,48.01
2022-07-27T23:56:55.484Z,47.97
2022-07-27T23:59:27.932Z,47.87
